Time;durP1;ratioP1;P1;durP2;ratioP2;P2;SDS_P1;SDS_P2;PMS_P1;PMS_P2;Temp;Humidity;BMP_temperature;BMP_pressure;BME280_temperature;BME280_humidity;BME280_pressure;Samples;Min_cycle;Max_cycle;Signal;HPM_P1;HPM_P2
2022/07/17 00:00:43;;;;;;;4.93;2.30;;;19.50;99.90;;;;;;5099342;28;20220;-82
2022/07/17 00:03:14;;;;;;;5.93;2.27;;;19.40;99.90;;;;;;5115717;28;20650;-79
2022/07/17 00:05:41;;;;;;;4.67;2.63;;;19.30;99.90;;;;;;5116349;28;20172;-80
2022/07/17 00:08:08;;;;;;;5.93;2.80;;;19.30;99.90;;;;;;5116065;28;20612;-81
2022/07/17 00:10:38;;;;;;;7.97;2.70;;;19.40;99.90;;;;;;5116321;28;20175;-80
2022/07/17 00:13:04;;;;;;;5.93;2.77;;;19.10;99.90;;;;;;5121573;27;20217;-79
2022/07/17 00:15:31;;;;;;;5.63;2.57;;;19.10;1.00;;;;;;5136726;27;20173;-80
2022/07/17 00:17:57;;;;;;;6.60;2.90;;;19.00;1.00;;;;;;5136270;27;20178;-79
2022/07/17 00:20:26;;;;;;;6.50;3.20;;;19.00;1.00;;;;;;5136951;27;20254;-81
2022/07/17 00:22:54;;;;;;;5.80;2.40;;;19.00;1.00;;;;;;5136151;27;20162;-81
2022/07/17 00:25:19;;;;;;;6.73;2.53;;;18.90;1.00;;;;;;5136308;27;20220;-81
2022/07/17 00:27:45;;;;;;;5.07;2.37;;;18.90;1.00;;;;;;5111515;28;20167;-80
2022/07/17 00:30:12;;;;;;;7.17;2.30;;;18.70;1.00;;;;;;5115552;28;20182;-80
2022/07/17 00:32:38;;;;;;;5.87;1.87;;;18.60;1.00;;;;;;5115276;28;20573;-79
2022/07/17 00:35:05;;;;;;;8.40;2.70;;;18.50;1.00;;;;;;5115791;28;20171;-81
2022/07/17 00:37:30;;;;;;;5.90;2.53;;;18.50;1.00;;;;;;5124464;27;20224;-79
2022/07/17 00:39:56;;;;;;;4.63;2.20;;;18.50;1.00;;;;;;5120520;27;20267;-80
2022/07/17 00:42:22;;;;;;;4.00;1.93;;;18.30;1.00;;;;;;5115023;28;20167;-78
2022/07/17 00:44:48;;;;;;;4.30;1.97;;;18.30;1.00;;;;;;5115535;28;20678;-79
2022/07/17 00:47:19;;;;;;;5.50;2.30;;;18.20;1.00;;;;;;5114608;28;20170;-80
2022/07/17 00:49:46;;;;;;;8.30;2.30;;;18.20;1.00;;;;;;5115285;28;20163;-77
2022/07/17 00:52:13;;;;;;;6.37;2.50;;;18.30;1.00;;;;;;5131123;27;20174;-82
2022/07/17 00:54:41;;;;;;;5.40;2.17;;;18.20;1.00;;;;;;5136389;27;20227;-80
2022/07/17 00:57:08;;;;;;;5.17;2.67;;;18.10;1.00;;;;;;5135258;27;20167;-80
2022/07/17 00:59:35;;;;;;;5.10;1.83;;;18.20;1.00;;;;;;5135598;27;20170;-77
2022/07/17 01:02:06;;;;;;;4.87;2.10;;;18.10;1.00;;;;;;5136648;27;20173;-77
2022/07/17 01:04:33;;;;;;;6.03;2.07;;;18.20;1.00;;;;;;5136753;27;20218;-78
2022/07/17 01:07:00;;;;;;;6.97;2.40;;;18.20;1.00;;;;;;5113791;28;20175;-80
2022/07/17 01:09:29;;;;;;;4.87;2.17;;;18.10;1.00;;;;;;5122413;28;20167;-79
2022/07/17 01:11:56;;;;;;;3.63;1.87;;;18.00;1.00;;;;;;5130890;28;20163;-80
2022/07/17 01:14:27;;;;;;;7.27;2.07;;;18.10;1.00;;;;;;5131488;28;20175;-76
2022/07/17 01:16:54;;;;;;;6.83;2.20;;;18.10;1.00;;;;;;5131658;28;20183;-81
2022/07/17 01:19:21;;;;;;;4.23;2.10;;;18.00;1.00;;;;;;5141317;27;20280;-81
2022/07/17 01:21:50;;;;;;;5.63;2.40;;;18.10;1.00;;;;;;5137061;27;20629;-78
2022/07/17 01:24:17;;;;;;;6.77;1.83;;;18.10;1.00;;;;;;5135521;27;20200;-79
2022/07/17 01:26:47;;;;;;;5.07;2.17;;;18.10;1.00;;;;;;5116685;27;20167;-79
2022/07/17 01:29:14;;;;;;;5.03;2.03;;;18.20;1.00;;;;;;5117445;28;20212;-77
2022/07/17 01:31:41;;;;;;;7.43;1.90;;;18.30;1.00;;;;;;5121407;28;20167;-79
2022/07/17 01:34:08;;;;;;;5.73;2.43;;;18.30;1.00;;;;;;5115508;28;20177;-79
2022/07/17 01:36:35;;;;;;;7.57;2.70;;;18.40;1.00;;;;;;5096081;28;20684;-80
2022/07/17 01:39:01;;;;;;;7.93;2.43;;;18.50;1.00;;;;;;5115339;28;20179;-79
2022/07/17 01:41:26;;;;;;;6.03;2.50;;;18.50;1.00;;;;;;5122612;27;20170;-76
2022/07/17 01:43:52;;;;;;;7.33;2.30;;;18.40;1.00;;;;;;5155923;27;20219;-80
2022/07/17 01:46:18;;;;;;;5.00;2.30;;;18.40;1.00;;;;;;5142242;27;20529;-81
2022/07/17 01:48:44;;;;;;;5.47;2.20;;;18.50;1.00;;;;;;5138515;27;20174;-81
2022/07/17 01:51:15;;;;;;;5.63;2.40;;;18.50;1.00;;;;;;5136673;27;20170;-81
2022/07/17 01:53:41;;;;;;;5.97;2.50;;;18.60;1.00;;;;;;5135077;27;20158;-81
2022/07/17 01:56:07;;;;;;;6.33;1.93;;;18.70;1.00;;;;;;5134083;27;20258;-78
2022/07/17 01:58:33;;;;;;;7.57;2.43;;;18.70;1.00;;;;;;5134628;27;20174;-78
2022/07/17 02:01:00;;;;;;;5.30;2.20;;;18.80;1.00;;;;;;5134767;27;20182;-80
2022/07/17 02:03:26;;;;;;;3.83;1.93;;;18.70;1.00;;;;;;5123052;28;20259;-76
2022/07/17 02:05:52;;;;;;;5.33;2.07;;;18.60;1.00;;;;;;5136665;28;20187;-76
2022/07/17 02:08:17;;;;;;;5.07;2.10;;;18.60;1.00;;;;;;5115007;28;20166;-81
2022/07/17 02:10:43;;;;;;;6.90;2.43;;;18.50;1.00;;;;;;5121061;28;20204;-79
2022/07/17 02:13:15;;;;;;;3.93;1.80;;;18.20;1.00;;;;;;5124970;28;20260;-79
2022/07/17 02:15:40;;;;;;;7.60;2.20;;;18.00;1.00;;;;;;5137255;28;20352;-80
2022/07/17 02:18:08;;;;;;;7.47;2.40;;;17.90;1.00;;;;;;5135191;28;20551;-80
2022/07/17 02:20:34;;;;;;;5.43;2.17;;;17.80;1.00;;;;;;5134501;28;20153;-79
2022/07/17 02:22:59;;;;;;;4.97;2.33;;;17.70;1.00;;;;;;5134373;28;20166;-80
2022/07/17 02:25:25;;;;;;;5.63;2.37;;;17.70;1.00;;;;;;5134864;28;20672;-79
2022/07/17 02:27:51;;;;;;;7.40;2.37;;;17.60;1.00;;;;;;5136530;28;20198;-78
2022/07/17 02:30:18;;;;;;;7.70;2.07;;;17.50;1.00;;;;;;5139302;28;20179;-81
2022/07/17 02:32:45;;;;;;;5.97;2.00;;;17.40;1.00;;;;;;5120486;28;20167;-82
2022/07/17 02:35:14;;;;;;;6.40;2.43;;;17.30;1.00;;;;;;5116970;28;20262;-81
2022/07/17 02:37:42;;;;;;;4.67;2.10;;;17.20;1.00;;;;;;5117873;28;20269;-80
2022/07/17 02:40:08;;;;;;;5.27;2.10;;;17.40;1.00;;;;;;5099321;28;20283;-80
2022/07/17 02:42:34;;;;;;;5.67;2.23;;;17.50;1.00;;;;;;5117277;28;20206;-79
2022/07/17 02:44:59;;;;;;;4.70;2.00;;;17.60;1.00;;;;;;5114850;27;20248;-81
2022/07/17 02:47:28;;;;;;;4.63;1.97;;;17.60;1.00;;;;;;5137267;27;20178;-81
2022/07/17 02:49:53;;;;;;;5.47;2.17;;;17.50;1.00;;;;;;5137867;27;20186;-80
2022/07/17 02:52:19;;;;;;;4.77;1.97;;;17.50;1.00;;;;;;5138338;27;20638;-80
2022/07/17 02:54:45;;;;;;;7.53;2.13;;;17.60;1.00;;;;;;5131846;27;20175;-81
2022/07/17 02:57:12;;;;;;;5.67;2.27;;;17.70;1.00;;;;;;5117324;28;20183;-79
2022/07/17 02:59:38;;;;;;;4.93;2.13;;;17.80;1.00;;;;;;5117707;28;20740;-80
2022/07/17 03:02:04;;;;;;;8.00;2.37;;;17.70;1.00;;;;;;5125029;27;20174;-78
2022/07/17 03:04:30;;;;;;;4.53;2.33;;;17.70;1.00;;;;;;5139155;27;20210;-79
2022/07/17 03:06:56;;;;;;;7.60;2.77;;;17.60;1.00;;;;;;5137696;27;20167;-80
2022/07/17 03:09:21;;;;;;;6.07;2.50;;;17.60;1.00;;;;;;5137727;27;20653;-79
2022/07/17 03:11:47;;;;;;;5.30;1.90;;;17.50;1.00;;;;;;5137280;27;20641;-78
2022/07/17 03:14:13;;;;;;;7.53;2.63;;;17.50;1.00;;;;;;5137750;27;20721;-80
2022/07/17 03:16:38;;;;;;;5.90;2.10;;;17.60;1.00;;;;;;5113573;28;20185;-80
2022/07/17 03:19:04;;;;;;;7.07;2.43;;;17.60;1.00;;;;;;5117334;28;20205;-79
2022/07/17 03:21:30;;;;;;;6.30;2.30;;;17.60;1.00;;;;;;5117325;28;20176;-78
2022/07/17 03:23:55;;;;;;;8.20;2.43;;;17.30;1.00;;;;;;5117098;28;20559;-80
2022/07/17 03:26:21;;;;;;;6.73;2.53;;;17.40;1.00;;;;;;5098282;28;20172;-78
2022/07/17 03:28:47;;;;;;;6.03;2.33;;;17.50;1.00;;;;;;5127214;27;20634;-80
2022/07/17 03:31:14;;;;;;;7.53;2.50;;;17.50;1.00;;;;;;5136875;27;20630;-77
2022/07/17 03:33:39;;;;;;;5.97;2.63;;;17.40;1.00;;;;;;5137789;27;20175;-79
2022/07/17 03:36:06;;;;;;;7.20;2.90;;;17.40;1.00;;;;;;5136649;27;20170;-79
2022/07/17 03:38:32;;;;;;;6.00;2.47;;;17.40;1.00;;;;;;5137161;27;20205;-79
2022/07/17 03:40:58;;;;;;;7.57;2.80;;;17.60;1.00;;;;;;5138795;27;20175;-79
2022/07/17 03:43:24;;;;;;;7.93;2.50;;;17.40;1.00;;;;;;5135074;27;20208;-79
2022/07/17 03:45:49;;;;;;;7.20;2.40;;;17.40;1.00;;;;;;5137043;27;20255;-80
2022/07/17 03:48:15;;;;;;;5.40;2.20;;;17.40;1.00;;;;;;5136669;27;20181;-79
2022/07/17 03:50:41;;;;;;;5.67;2.73;;;17.40;1.00;;;;;;5118177;27;20174;-80
2022/07/17 03:53:07;;;;;;;6.20;2.70;;;17.40;1.00;;;;;;5136659;27;20213;-81
2022/07/17 03:55:33;;;;;;;6.10;3.00;;;17.60;1.00;;;;;;5136213;27;20646;-80
2022/07/17 03:57:59;;;;;;;5.23;2.40;;;17.60;1.00;;;;;;5136800;27;20187;-79
2022/07/17 04:00:25;;;;;;;6.00;2.23;;;17.60;1.00;;;;;;5134285;27;20158;-81
2022/07/17 04:02:51;;;;;;;7.23;2.53;;;17.60;1.00;;;;;;5115529;28;20221;-79
2022/07/17 04:05:16;;;;;;;4.60;1.80;;;17.60;1.00;;;;;;5115623;28;20188;-80
2022/07/17 04:07:43;;;;;;;7.17;2.00;;;17.50;1.00;;;;;;5116094;28;20650;-80
2022/07/17 04:10:11;;;;;;;7.23;2.43;;;17.40;1.00;;;;;;5126500;27;20271;-78
2022/07/17 04:12:37;;;;;;;9.57;2.93;;;17.40;1.00;;;;;;5136156;27;20196;-80
2022/07/17 04:15:04;;;;;;;6.87;2.37;;;17.50;1.00;;;;;;5136514;27;20187;-80
2022/07/17 04:17:30;;;;;;;5.87;2.50;;;17.50;1.00;;;;;;5136123;27;20166;-80
2022/07/17 04:19:55;;;;;;;5.97;2.60;;;17.60;1.00;;;;;;5123684;27;20192;-79
2022/07/17 04:22:21;;;;;;;6.50;2.13;;;17.50;1.00;;;;;;5097152;28;20521;-78
2022/07/17 04:24:47;;;;;;;8.27;2.30;;;17.50;1.00;;;;;;5120535;27;20737;-79
2022/07/17 04:27:13;;;;;;;8.30;2.60;;;17.50;1.00;;;;;;5115786;27;20657;-78
2022/07/17 04:29:39;;;;;;;10.77;2.50;;;17.50;1.00;;;;;;5118003;27;20170;-79
2022/07/17 04:32:05;;;;;;;4.70;1.80;;;17.50;1.00;;;;;;5129315;27;20257;-79
2022/07/17 04:34:32;;;;;;;8.77;2.47;;;17.40;1.00;;;;;;5125534;27;20244;-79
2022/07/17 04:36:58;;;;;;;5.27;2.00;;;17.50;1.00;;;;;;5135380;27;20178;-82
2022/07/17 04:39:24;;;;;;;6.27;2.40;;;17.70;1.00;;;;;;5140203;27;20538;-79
2022/07/17 04:41:51;;;;;;;8.50;2.60;;;17.80;1.00;;;;;;5151841;27;20192;-79
2022/07/17 04:44:17;;;;;;;7.33;2.40;;;17.90;1.00;;;;;;5113957;28;20239;-76
2022/07/17 04:46:45;;;;;;;9.13;2.50;;;18.00;1.00;;;;;;5122065;28;20174;-77
2022/07/17 04:49:13;;;;;;;5.17;2.10;;;17.80;1.00;;;;;;5135879;28;20178;-80
2022/07/17 04:51:42;;;;;;;4.13;2.20;;;17.70;1.00;;;;;;5130969;28;20234;-81
2022/07/17 04:54:26;;;;;;;8.60;2.30;;;17.60;1.00;;;;;;5119818;28;20163;-81
2022/07/17 04:57:15;;;;;;;6.40;2.60;;;17.70;1.00;;;;;;5116014;28;20159;-82
2022/07/17 04:59:40;;;;;;;8.30;3.17;;;17.90;1.00;;;;;;5133210;28;20178;-81
2022/07/17 05:02:07;;;;;;;4.17;2.30;;;18.00;1.00;;;;;;5137602;28;20170;-81
2022/07/17 05:04:33;;;;;;;4.03;2.03;;;18.00;1.00;;;;;;5113130;28;20225;-81
2022/07/17 05:07:04;;;;;;;4.33;2.13;;;18.10;1.00;;;;;;5134896;28;20184;-79
2022/07/17 05:09:30;;;;;;;6.97;2.50;;;18.00;1.00;;;;;;5137130;28;20170;-78
2022/07/17 05:11:56;;;;;;;5.03;2.00;;;18.10;1.00;;;;;;5118177;28;20191;-81
2022/07/17 05:14:33;;;;;;;5.93;2.30;;;18.10;1.00;;;;;;5130569;28;20646;-82
2022/07/17 05:17:00;;;;;;;7.47;2.67;;;18.10;1.00;;;;;;5115027;28;20163;-82
2022/07/17 05:19:26;;;;;;;6.10;2.40;;;18.20;1.00;;;;;;5114718;28;20677;-82
2022/07/17 05:21:51;;;;;;;7.87;2.13;;;18.30;1.00;;;;;;5096510;28;20171;-83
2022/07/17 05:24:17;;;;;;;4.57;2.23;;;18.30;1.00;;;;;;5114722;28;20734;-82
2022/07/17 05:26:43;;;;;;;8.23;2.40;;;18.50;1.00;;;;;;5116056;28;20556;-82
2022/07/17 05:29:08;;;;;;;5.23;2.30;;;18.40;1.00;;;;;;5122491;28;20167;-80
2022/07/17 05:31:34;;;;;;;7.87;1.90;;;18.50;1.00;;;;;;5118392;28;20595;-83
2022/07/17 05:34:00;;;;;;;4.80;2.10;;;18.50;1.00;;;;;;5097027;28;20214;-82
2022/07/17 05:36:26;;;;;;;8.10;2.37;;;18.60;1.00;;;;;;5114544;28;20528;-82
2022/07/17 05:38:52;;;;;;;5.03;1.60;;;18.80;1.00;;;;;;5114400;28;20207;-82
2022/07/17 05:41:17;;;;;;;6.60;2.23;;;18.70;1.00;;;;;;5114599;28;20230;-81
2022/07/17 05:43:43;;;;;;;5.20;2.13;;;18.90;1.00;;;;;;5113935;28;20249;-82
2022/07/17 05:46:09;;;;;;;8.23;2.13;;;19.10;1.00;;;;;;5116254;28;20177;-82
2022/07/17 05:48:36;;;;;;;5.40;2.00;;;19.10;1.00;;;;;;5116010;28;20526;-81
2022/07/17 05:51:02;;;;;;;6.70;1.83;;;19.20;1.00;;;;;;5113703;28;20170;-82
2022/07/17 05:53:28;;;;;;;6.70;2.30;;;19.20;1.00;;;;;;5113142;28;20163;-81
2022/07/17 05:55:53;;;;;;;5.53;2.30;;;18.80;1.00;;;;;;5113613;28;20168;-80
2022/07/17 05:58:19;;;;;;;5.13;2.43;;;18.70;1.00;;;;;;5113739;28;20284;-80
2022/07/17 06:00:45;;;;;;;7.83;3.00;;;18.90;1.00;;;;;;5114271;28;20178;-82
2022/07/17 06:03:11;;;;;;;5.17;2.47;;;19.00;1.00;;;;;;5114531;28;20164;-80
2022/07/17 06:05:37;;;;;;;7.27;2.37;;;19.10;1.00;;;;;;5113962;28;20194;-79
2022/07/17 06:08:05;;;;;;;7.53;2.43;;;18.90;1.00;;;;;;5112942;28;20175;-80
2022/07/17 06:10:31;;;;;;;5.30;2.10;;;19.10;1.00;;;;;;5094765;28;20238;-81
2022/07/17 06:12:56;;;;;;;6.17;2.63;;;19.10;1.00;;;;;;5113735;28;20210;-81
2022/07/17 06:15:23;;;;;;;4.93;2.20;;;19.20;1.00;;;;;;5096017;28;20171;-79
2022/07/17 06:17:49;;;;;;;7.53;2.23;;;19.00;1.00;;;;;;5114413;28;20191;-81
2022/07/17 06:20:15;;;;;;;5.67;2.40;;;19.20;1.00;;;;;;5113933;28;20168;-80
2022/07/17 06:22:41;;;;;;;4.93;2.17;;;19.30;1.00;;;;;;5113556;28;20168;-81
2022/07/17 06:25:08;;;;;;;3.83;1.87;;;19.40;1.00;;;;;;5113484;28;20318;-80
2022/07/17 06:27:34;;;;;;;5.77;1.90;;;19.40;1.00;;;;;;5113885;28;20160;-79
2022/07/17 06:30:00;;;;;;;6.47;2.20;;;19.50;99.90;;;;;;5113941;28;20320;-80
2022/07/17 06:32:26;;;;;;;5.03;2.07;;;19.50;99.90;;;;;;5094286;28;20707;-80
2022/07/17 06:34:52;;;;;;;6.27;2.10;;;19.40;99.90;;;;;;5112415;28;20675;-81
2022/07/17 06:37:17;;;;;;;4.10;1.90;;;19.30;99.90;;;;;;5114468;28;20218;-80
2022/07/17 06:39:43;;;;;;;7.43;2.47;;;19.30;99.90;;;;;;5123344;28;20256;-82
2022/07/17 06:42:10;;;;;;;6.27;2.03;;;19.30;99.90;;;;;;5095901;28;20183;-82
2022/07/17 06:44:36;;;;;;;6.93;2.10;;;19.20;99.90;;;;;;5113466;28;20663;-81
2022/07/17 06:47:02;;;;;;;6.30;2.33;;;19.40;1.00;;;;;;5095166;28;20676;-81
2022/07/17 06:49:28;;;;;;;5.47;2.20;;;19.70;99.90;;;;;;5114404;28;20169;-82
2022/07/17 06:51:53;;;;;;;8.57;2.43;;;19.80;99.90;;;;;;5095174;28;20539;-80
2022/07/17 06:54:23;;;;;;;4.43;2.07;;;19.80;99.90;;;;;;5094886;28;20205;-80
2022/07/17 06:56:50;;;;;;;5.87;1.93;;;19.80;99.90;;;;;;5112571;28;20176;-81
2022/07/17 06:59:16;;;;;;;7.10;2.30;;;19.70;99.90;;;;;;5094941;28;20663;-81
2022/07/17 07:01:41;;;;;;;7.20;2.37;;;19.80;99.90;;;;;;5113504;28;20168;-82
2022/07/17 07:04:07;;;;;;;7.87;2.70;;;19.80;99.90;;;;;;5133860;28;20211;-80
2022/07/17 07:06:33;;;;;;;6.97;2.13;;;19.80;99.90;;;;;;5126990;27;20666;-81
2022/07/17 07:08:59;;;;;;;5.87;2.23;;;19.90;99.90;;;;;;5133164;28;20687;-81
2022/07/17 07:11:26;;;;;;;6.30;2.30;;;20.20;99.90;;;;;;5134067;28;20165;-81
2022/07/17 07:13:52;;;;;;;6.70;2.90;;;20.30;99.90;;;;;;5134608;28;20620;-80
2022/07/17 07:16:18;;;;;;;5.93;2.40;;;20.20;99.90;;;;;;5115271;28;20172;-82
2022/07/17 07:18:43;;;;;;;6.67;2.47;;;20.40;99.90;;;;;;5134023;28;20714;-82
2022/07/17 07:21:09;;;;;;;7.60;2.30;;;20.80;99.90;;;;;;5124644;27;20233;-80
2022/07/17 07:23:35;;;;;;;8.27;2.43;;;20.80;1.00;;;;;;5150734;27;20207;-80
2022/07/17 07:26:01;;;;;;;7.77;2.20;;;20.80;1.00;;;;;;5123032;27;20267;-81
2022/07/17 07:28:27;;;;;;;7.27;2.23;;;20.90;1.00;;;;;;5137096;27;20197;-80
2022/07/17 07:30:52;;;;;;;5.57;2.00;;;21.00;1.00;;;;;;5120167;27;20174;-81
2022/07/17 07:33:18;;;;;;;6.13;2.43;;;20.80;1.00;;;;;;5137302;27;20160;-83
2022/07/17 07:35:44;;;;;;;6.93;2.47;;;20.50;1.00;;;;;;5120352;27;20641;-83
2022/07/17 07:38:10;;;;;;;8.77;2.40;;;20.60;1.00;;;;;;5118958;27;20269;-81
2022/07/17 07:40:36;;;;;;;7.57;2.37;;;20.70;1.00;;;;;;5152435;27;20617;-81
2022/07/17 07:43:02;;;;;;;6.40;2.10;;;20.60;1.00;;;;;;5159305;27;20170;-81
2022/07/17 07:45:28;;;;;;;6.27;2.30;;;20.90;1.00;;;;;;5114696;27;20194;-83
2022/07/17 07:47:54;;;;;;;8.00;2.20;;;21.10;1.00;;;;;;5142678;27;20170;-82
2022/07/17 07:53:42;;;;;;;5.90;2.17;;;20.90;1.00;;;;;;5139983;27;20183;-84
2022/07/17 07:56:07;;;;;;;6.97;2.30;;;20.70;1.00;;;;;;5141787;27;20169;-82
2022/07/17 07:58:33;;;;;;;6.80;2.40;;;20.90;1.00;;;;;;5160342;27;20173;-81
2022/07/17 08:00:59;;;;;;;6.07;2.27;;;20.90;1.00;;;;;;5159933;27;20161;-83
2022/07/17 08:03:25;;;;;;;5.73;1.97;;;20.70;1.00;;;;;;5161530;27;20305;-82
2022/07/17 08:05:51;;;;;;;8.33;1.97;;;20.70;1.00;;;;;;5161213;27;20156;-81
2022/07/17 08:08:17;;;;;;;7.23;2.00;;;20.80;1.00;;;;;;5142966;27;20229;-82
2022/07/17 08:10:44;;;;;;;4.50;1.87;;;20.80;1.00;;;;;;5160416;27;20166;-80
2022/07/17 08:13:12;;;;;;;5.13;2.23;;;20.80;1.00;;;;;;5147993;27;20198;-83
2022/07/17 08:15:45;;;;;;;5.53;2.07;;;20.70;1.00;;;;;;5128090;27;20540;-83
2022/07/17 08:18:20;;;;;;;7.07;2.20;;;20.80;1.00;;;;;;5124524;27;20192;-82
2022/07/17 08:20:46;;;;;;;6.13;2.00;;;20.90;1.00;;;;;;5122600;27;20172;-84
2022/07/17 08:23:16;;;;;;;5.23;2.00;;;21.10;1.00;;;;;;5136999;27;20675;-83
2022/07/17 08:25:42;;;;;;;7.37;2.03;;;21.00;1.00;;;;;;5137808;27;20173;-81
2022/07/17 08:28:07;;;;;;;8.93;2.50;;;21.00;1.00;;;;;;5141900;27;20166;-80
2022/07/17 08:30:34;;;;;;;5.03;2.13;;;21.00;1.00;;;;;;5139523;27;20179;-82
2022/07/17 08:33:07;;;;;;;6.10;2.10;;;21.10;99.90;;;;;;5136435;27;20196;-80
2022/07/17 08:35:34;;;;;;;5.47;2.33;;;21.20;1.00;;;;;;5136417;27;20657;-82
2022/07/17 08:38:00;;;;;;;4.20;1.77;;;21.30;99.90;;;;;;5136501;27;20185;-81
2022/07/17 08:40:34;;;;;;;9.30;2.30;;;21.30;1.00;;;;;;5137861;27;20177;-81
2022/07/17 08:43:01;;;;;;;5.27;2.10;;;21.40;1.00;;;;;;5137797;27;20177;-82
2022/07/17 08:45:27;;;;;;;6.73;2.10;;;21.20;38.90;;;;;;5120890;27;20315;-82
2022/07/17 08:47:54;;;;;;;6.00;2.07;;;21.30;1.00;;;;;;5101970;27;20182;-82
2022/07/17 08:50:27;;;;;;;4.57;1.93;;;21.50;1.00;;;;;;5123311;27;20239;-81
2022/07/17 08:52:53;;;;;;;8.97;2.07;;;21.70;94.90;;;;;;5140035;27;20222;-83
2022/07/17 08:55:19;;;;;;;8.07;1.90;;;21.80;91.20;;;;;;5137740;27;20176;-81
2022/07/17 08:57:46;;;;;;;6.80;2.00;;;21.80;1.00;;;;;;5137411;27;20175;-82
2022/07/17 09:00:15;;;;;;;4.67;1.90;;;22.00;30.20;;;;;;5137246;27;20159;-81
2022/07/17 09:03:02;;;;;;;6.27;2.20;;;21.80;99.90;;;;;;5118367;27;20177;-81
2022/07/17 09:05:36;;;;;;;5.73;1.83;;;21.80;99.90;;;;;;5120762;27;20634;-82
2022/07/17 09:08:02;;;;;;;5.97;2.10;;;22.00;1.00;;;;;;5118662;27;20166;-81
2022/07/17 09:10:37;;;;;;;6.17;1.93;;;22.20;1.00;;;;;;5117824;27;20633;-83
2022/07/17 09:13:20;;;;;;;6.37;2.07;;;22.60;1.00;;;;;;5117545;27;20173;-82
2022/07/17 09:15:48;;;;;;;6.37;2.47;;;22.50;99.90;;;;;;5135517;27;20256;-83
2022/07/17 09:18:15;;;;;;;7.03;2.17;;;22.60;1.00;;;;;;5117579;27;20302;-81
2022/07/17 09:20:49;;;;;;;6.23;2.13;;;22.60;1.00;;;;;;5136347;27;20676;-81
2022/07/17 09:23:16;;;;;;;4.23;2.00;;;22.70;1.00;;;;;;5117249;27;20549;-81
2022/07/17 09:25:44;;;;;;;5.90;2.10;;;23.00;1.00;;;;;;5135683;27;20201;-82
2022/07/17 09:28:13;;;;;;;8.17;2.17;;;23.10;99.90;;;;;;5135450;27;20225;-81
2022/07/17 09:30:42;;;;;;;6.70;2.30;;;22.90;1.00;;;;;;5117209;27;20195;-82
2022/07/17 09:33:12;;;;;;;6.67;2.23;;;22.60;99.90;;;;;;5136342;27;20524;-81
2022/07/17 09:35:56;;;;;;;3.73;2.07;;;22.40;1.00;;;;;;5129224;27;20167;-82
2022/07/17 09:38:32;;;;;;;4.47;1.70;;;22.20;1.00;;;;;;5153924;27;20194;-82
2022/07/17 09:41:17;;;;;;;9.93;2.10;;;22.40;1.00;;;;;;5138504;27;20242;-82
2022/07/17 09:43:53;;;;;;;8.67;2.17;;;22.50;99.90;;;;;;5134723;27;20196;-81
2022/07/17 09:46:22;;;;;;;4.03;1.80;;;22.70;1.00;;;;;;5135369;27;20228;-82
2022/07/17 09:48:55;;;;;;;4.37;1.97;;;22.90;99.90;;;;;;5140346;27;20169;-82
2022/07/17 09:51:31;;;;;;;4.73;1.83;;;23.20;1.00;;;;;;5121496;27;20199;-81
2022/07/17 09:54:00;;;;;;;4.73;1.97;;;22.80;1.00;;;;;;5154507;27;20155;-80
2022/07/17 09:56:28;;;;;;;5.43;1.80;;;22.70;1.00;;;;;;5130119;27;20168;-82
2022/07/17 09:59:02;;;;;;;4.07;1.90;;;22.90;99.90;;;;;;5119128;27;20596;-82
2022/07/17 10:01:31;;;;;;;6.63;2.30;;;23.00;1.00;;;;;;5138543;27;20167;-82
2022/07/17 10:03:57;;;;;;;6.37;2.13;;;22.90;1.00;;;;;;5121372;27;20680;-82
2022/07/17 10:06:24;;;;;;;6.93;2.20;;;23.00;1.00;;;;;;5145231;27;20168;-81
2022/07/17 10:08:51;;;;;;;5.43;1.90;;;23.20;1.00;;;;;;5125653;28;20173;-83
2022/07/17 10:11:20;;;;;;;5.03;1.87;;;23.30;99.90;;;;;;5135727;28;20522;-82
2022/07/17 10:13:47;;;;;;;5.77;2.40;;;23.20;99.90;;;;;;5119450;28;20168;-82
2022/07/17 10:16:14;;;;;;;5.60;2.27;;;23.00;1.00;;;;;;5136055;28;20171;-82
2022/07/17 10:18:42;;;;;;;6.13;2.10;;;22.80;1.00;;;;;;5137034;28;20234;-82
2022/07/17 10:21:14;;;;;;;5.13;2.00;;;22.90;1.00;;;;;;5117658;28;20247;-82
2022/07/17 10:23:50;;;;;;;6.33;2.30;;;23.00;93.30;;;;;;5135430;28;20196;-81
2022/07/17 10:26:16;;;;;;;5.23;2.10;;;22.80;42.70;;;;;;5135391;28;20164;-81
2022/07/17 10:28:45;;;;;;;5.17;2.23;;;22.90;75.80;;;;;;5117428;28;20716;-82
2022/07/17 10:31:26;;;;;;;5.67;2.97;;;22.90;1.00;;;;;;5135392;28;20648;-81
2022/07/17 10:34:10;;;;;;;7.00;2.70;;;23.00;1.00;;;;;;5117087;28;20228;-82
2022/07/17 10:36:40;;;;;;;5.83;2.10;;;23.00;1.00;;;;;;5135819;27;20179;-83
2022/07/17 10:39:14;;;;;;;11.47;2.73;;;23.10;99.90;;;;;;5121653;28;20180;-81
2022/07/17 10:41:41;;;;;;;4.90;2.20;;;23.40;99.90;;;;;;5158250;27;20182;-82
2022/07/17 10:44:07;;;;;;;6.53;2.40;;;23.40;1.00;;;;;;5145151;28;20753;-82
2022/07/17 10:46:34;;;;;;;7.77;2.63;;;23.50;1.00;;;;;;5121991;28;20169;-82
2022/07/17 10:49:03;;;;;;;6.47;2.23;;;23.40;99.90;;;;;;5138390;28;20168;-83
2022/07/17 10:51:31;;;;;;;7.03;2.60;;;23.40;99.90;;;;;;5116605;28;20713;-83
2022/07/17 10:53:58;;;;;;;5.30;2.30;;;23.30;99.90;;;;;;5135232;28;20221;-83
2022/07/17 10:56:25;;;;;;;4.47;2.50;;;23.20;1.00;;;;;;5136689;27;20171;-82
2022/07/17 10:58:52;;;;;;;5.57;2.70;;;23.30;1.00;;;;;;5141954;27;20271;-82
2022/07/17 11:01:21;;;;;;;5.97;2.90;;;23.50;1.00;;;;;;5151931;27;20220;-83
2022/07/17 11:03:55;;;;;;;6.07;2.50;;;23.80;99.90;;;;;;5158507;27;20205;-82
2022/07/17 11:06:25;;;;;;;5.27;2.50;;;24.10;99.90;;;;;;5129632;27;20172;-82
2022/07/17 11:08:53;;;;;;;5.43;2.63;;;24.30;99.90;;;;;;5121878;27;20625;-82
2022/07/17 11:11:45;;;;;;;7.83;2.53;;;24.20;99.90;;;;;;5120629;27;20173;-84
2022/07/17 11:14:10;;;;;;;6.43;3.10;;;24.20;99.90;;;;;;5139787;27;20178;-83
2022/07/17 11:16:37;;;;;;;6.90;2.80;;;24.30;99.90;;;;;;5129232;27;20193;-82
2022/07/17 11:19:03;;;;;;;5.60;2.47;;;24.10;99.90;;;;;;5160270;27;20186;-81
2022/07/17 11:21:29;;;;;;;5.47;2.33;;;24.00;99.90;;;;;;5158573;27;20170;-83
2022/07/17 11:23:57;;;;;;;6.47;2.90;;;24.40;99.90;;;;;;5152432;27;20334;-82
2022/07/17 11:26:28;;;;;;;5.93;2.50;;;24.50;99.90;;;;;;5141345;27;20208;-82
2022/07/17 11:28:56;;;;;;;7.83;2.87;;;24.70;99.90;;;;;;5121868;27;20174;-83
2022/07/17 11:31:25;;;;;;;6.40;2.83;;;24.70;30.00;;;;;;5120639;27;20617;-82
2022/07/17 11:33:56;;;;;;;6.47;2.77;;;24.50;1.00;;;;;;5119555;27;20327;-83
2022/07/17 11:36:30;;;;;;;5.20;2.80;;;24.40;1.00;;;;;;5138181;27;20170;-82
2022/07/17 11:38:58;;;;;;;3.80;2.40;;;24.60;1.00;;;;;;5139455;27;20167;-82
2022/07/17 11:41:36;;;;;;;5.07;3.33;;;24.70;1.00;;;;;;5141297;27;20181;-82
2022/07/17 11:44:08;;;;;;;4.70;3.00;;;24.50;1.00;;;;;;5120200;27;20204;-84
2022/07/17 11:46:34;;;;;;;6.70;3.07;;;24.40;1.00;;;;;;5119624;27;20260;-82
2022/07/17 11:48:59;;;;;;;5.07;2.37;;;24.40;1.00;;;;;;5120599;27;20251;-82
2022/07/17 11:51:43;;;;;;;5.50;3.07;;;24.50;1.00;;;;;;5138319;27;20180;-82
2022/07/17 11:54:12;;;;;;;5.80;3.00;;;25.00;1.00;;;;;;5141578;27;20533;-81
2022/07/17 11:56:39;;;;;;;5.77;3.00;;;25.20;99.90;;;;;;5120409;27;20178;-82
2022/07/17 11:59:06;;;;;;;7.70;3.17;;;25.40;99.90;;;;;;5138719;27;20226;-82
2022/07/17 12:01:44;;;;;;;5.60;2.73;;;25.30;1.00;;;;;;5121139;27;20174;-81
2022/07/17 12:04:13;;;;;;;5.20;2.60;;;25.40;1.00;;;;;;5123914;27;20205;-80
2022/07/17 12:06:39;;;;;;;5.77;2.73;;;25.40;99.90;;;;;;5139839;27;20177;-81
2022/07/17 12:09:06;;;;;;;4.40;2.50;;;25.30;99.90;;;;;;5120777;27;20215;-81
2022/07/17 12:11:32;;;;;;;4.73;3.00;;;25.30;99.90;;;;;;5140446;27;20241;-81
2022/07/17 12:14:07;;;;;;;6.60;2.60;;;25.60;99.90;;;;;;5120927;27;20178;-80
2022/07/17 12:16:35;;;;;;;6.10;2.77;;;25.60;99.90;;;;;;5138241;27;20568;-80
2022/07/17 12:19:04;;;;;;;6.17;2.87;;;25.80;99.90;;;;;;5121148;27;20198;-80
2022/07/17 12:21:32;;;;;;;5.47;2.80;;;25.50;99.90;;;;;;5123650;27;20265;-81
2022/07/17 12:24:04;;;;;;;6.20;2.80;;;25.40;99.90;;;;;;5160242;27;20212;-79
2022/07/17 12:26:33;;;;;;;7.87;3.13;;;25.40;99.90;;;;;;5143074;27;20177;-80
2022/07/17 12:29:00;;;;;;;4.83;2.60;;;25.40;99.90;;;;;;5137528;27;20749;-81
2022/07/17 12:31:30;;;;;;;8.00;3.10;;;25.40;88.10;;;;;;5119586;27;20261;-80
2022/07/17 12:33:56;;;;;;;6.53;2.97;;;25.60;99.90;;;;;;5119276;27;20170;-80
2022/07/17 12:36:22;;;;;;;5.33;2.40;;;25.50;27.40;;;;;;5136196;27;20167;-80
2022/07/17 12:38:48;;;;;;;4.73;2.20;;;25.30;12.10;;;;;;5118041;27;20185;-81
2022/07/17 12:41:14;;;;;;;4.47;2.70;;;25.40;1.00;;;;;;5118525;27;20166;-80
2022/07/17 12:43:41;;;;;;;4.20;2.57;;;25.50;1.00;;;;;;5136963;27;20200;-81
2022/07/17 12:46:07;;;;;;;3.37;2.10;;;25.40;1.00;;;;;;5136675;27;20170;-81
2022/07/17 12:48:32;;;;;;;4.53;2.20;;;25.50;1.00;;;;;;5136760;27;20193;-81
2022/07/17 12:50:58;;;;;;;5.70;2.83;;;25.80;1.00;;;;;;5118024;27;20214;-81
2022/07/17 12:53:24;;;;;;;6.27;2.47;;;25.90;25.00;;;;;;5153801;27;20178;-81
2022/07/17 12:55:49;;;;;;;5.77;2.73;;;25.90;1.00;;;;;;5138236;27;20281;-81
2022/07/17 12:58:15;;;;;;;5.80;2.87;;;26.00;1.00;;;;;;5136066;27;20155;-81
2022/07/17 13:00:41;;;;;;;4.67;2.77;;;25.80;1.00;;;;;;5118516;27;20634;-81